Time;durP1;ratioP1;P1;durP2;ratioP2;P2;SDS_P1;SDS_P2;PMS_P1;PMS_P2;Temp;Humidity;BMP_temperature;BMP_pressure;BME280_temperature;BME280_humidity;BME280_pressure;Samples;Min_cycle;Max_cycle;Signal;HPM_P1;HPM_P2
2020/12/25 00:00:47;;;;;;;6.70;2.53;;;3.00;99.90;;;;;;4191353;28;20468;-59
2020/12/25 00:02:48;;;;;;;4.00;2.50;;;3.10;99.90;;;;;;4191231;28;21059;-58
2020/12/25 00:04:50;;;;;;;4.83;2.60;;;3.10;99.90;;;;;;4190054;28;20502;-57
2020/12/25 00:06:52;;;;;;;6.53;2.43;;;3.20;99.90;;;;;;4188721;28;20468;-57
2020/12/25 00:08:53;;;;;;;5.07;2.53;;;3.20;99.90;;;;;;4190704;28;20501;-59
2020/12/25 00:10:55;;;;;;;4.37;2.20;;;3.30;99.90;;;;;;4189860;28;20474;-56
2020/12/25 00:12:56;;;;;;;5.00;2.27;;;3.30;99.90;;;;;;4190809;28;20480;-57
2020/12/25 00:14:57;;;;;;;7.50;2.50;;;3.30;99.90;;;;;;4190963;28;20471;-57
2020/12/25 00:16:59;;;;;;;4.13;2.07;;;3.30;99.90;;;;;;4190205;28;21448;-57
2020/12/25 00:19:00;;;;;;;3.63;2.30;;;3.20;99.90;;;;;;4191040;28;20471;-56
2020/12/25 00:21:02;;;;;;;4.93;2.20;;;3.20;99.90;;;;;;4190143;28;20486;-58
2020/12/25 00:23:03;;;;;;;4.80;2.20;;;3.20;99.90;;;;;;4190383;28;20467;-58
2020/12/25 00:25:05;;;;;;;3.83;2.10;;;3.30;99.90;;;;;;4191881;28;20494;-58
2020/12/25 00:27:06;;;;;;;5.27;2.03;;;3.30;99.90;;;;;;4188677;28;20483;-58
2020/12/25 00:29:07;;;;;;;6.67;2.43;;;3.30;99.90;;;;;;4190178;28;20462;-57
2020/12/25 00:31:09;;;;;;;4.43;2.63;;;3.30;99.90;;;;;;4191632;28;21082;-57
2020/12/25 00:33:10;;;;;;;3.70;2.00;;;3.30;99.90;;;;;;4189244;28;20495;-57
2020/12/25 00:35:11;;;;;;;4.67;2.03;;;3.30;99.90;;;;;;4189725;28;21000;-58
2020/12/25 00:37:14;;;;;;;4.53;1.90;;;3.30;99.90;;;;;;4190272;28;20467;-59
2020/12/25 00:39:16;;;;;;;3.37;1.73;;;3.40;99.90;;;;;;4189382;28;20478;-59
2020/12/25 00:41:18;;;;;;;4.43;1.90;;;3.40;99.90;;;;;;4190923;28;20480;-57
2020/12/25 00:43:19;;;;;;;4.77;1.70;;;3.40;99.90;;;;;;4191278;28;20505;-58
2020/12/25 00:45:20;;;;;;;5.33;1.73;;;3.40;99.90;;;;;;4189272;28;20533;-59
2020/12/25 00:47:22;;;;;;;4.07;1.80;;;3.40;99.90;;;;;;4189426;28;21148;-58
2020/12/25 00:49:23;;;;;;;2.73;1.70;;;3.40;99.90;;;;;;4188046;28;20480;-58
2020/12/25 00:51:24;;;;;;;3.57;1.60;;;3.40;99.90;;;;;;4192451;28;20485;-59
2020/12/25 00:53:27;;;;;;;3.20;1.73;;;3.40;99.90;;;;;;4189904;28;20484;-59
2020/12/25 00:55:28;;;;;;;4.80;1.90;;;3.40;99.90;;;;;;4189593;28;20477;-59
2020/12/25 00:57:29;;;;;;;2.50;1.80;;;3.40;99.90;;;;;;4189636;28;20467;-59
2020/12/25 00:59:31;;;;;;;5.53;1.70;;;3.40;99.90;;;;;;4189473;28;20498;-59
2020/12/25 01:01:37;;;;;;;6.63;2.10;;;3.40;99.90;;;;;;4190719;28;20467;-59
2020/12/25 01:03:39;;;;;;;3.80;2.00;;;3.40;99.90;;;;;;4189699;28;20509;-58
2020/12/25 01:05:40;;;;;;;3.40;1.87;;;3.30;99.90;;;;;;4190170;28;21270;-58
2020/12/25 01:07:42;;;;;;;4.83;2.27;;;3.30;99.90;;;;;;4189747;28;20495;-58
2020/12/25 01:09:44;;;;;;;3.50;1.73;;;3.30;99.90;;;;;;4191437;28;20474;-59
2020/12/25 01:11:45;;;;;;;4.70;2.10;;;3.30;99.90;;;;;;4191138;28;20509;-59
2020/12/25 01:13:47;;;;;;;2.97;1.77;;;3.30;99.90;;;;;;4190080;28;20471;-58
2020/12/25 01:15:48;;;;;;;4.53;2.13;;;3.30;99.90;;;;;;4189395;28;20501;-59
2020/12/25 01:17:50;;;;;;;5.27;1.83;;;3.30;99.90;;;;;;4190625;28;20490;-59
2020/12/25 01:19:51;;;;;;;4.30;1.90;;;3.30;99.90;;;;;;4189147;28;20997;-59
2020/12/25 01:21:52;;;;;;;3.80;2.00;;;3.30;99.90;;;;;;4188909;28;20487;-59
2020/12/25 01:23:54;;;;;;;4.37;1.90;;;3.20;99.90;;;;;;4191325;28;21028;-58
2020/12/25 01:25:57;;;;;;;5.17;1.80;;;3.20;99.90;;;;;;4189620;28;20859;-59
2020/12/25 01:27:58;;;;;;;2.47;1.57;;;3.20;99.90;;;;;;4190008;28;20501;-59
2020/12/25 01:29:59;;;;;;;3.93;2.30;;;3.20;99.90;;;;;;4190553;28;20469;-59
2020/12/25 01:32:00;;;;;;;5.10;1.97;;;3.20;99.90;;;;;;4189937;28;20479;-66
2020/12/25 01:34:02;;;;;;;4.17;2.20;;;3.20;99.90;;;;;;4190941;28;21512;-58
2020/12/25 01:36:05;;;;;;;4.00;1.90;;;3.10;99.90;;;;;;4189367;28;20590;-59
2020/12/25 01:38:06;;;;;;;6.13;2.40;;;3.10;99.90;;;;;;4190539;28;20459;-59
2020/12/25 01:40:08;;;;;;;7.37;2.30;;;3.10;99.90;;;;;;4190741;28;22247;-58
2020/12/25 01:42:10;;;;;;;3.97;2.30;;;3.00;99.90;;;;;;4188856;28;20565;-59
2020/12/25 01:44:11;;;;;;;7.00;2.20;;;3.00;99.90;;;;;;4191205;28;20479;-59
2020/12/25 01:46:14;;;;;;;4.97;2.80;;;3.00;99.90;;;;;;4188750;28;20468;-59
2020/12/25 01:48:15;;;;;;;6.07;2.57;;;3.00;99.90;;;;;;4189077;28;20495;-59
2020/12/25 01:50:17;;;;;;;6.53;2.50;;;3.00;99.90;;;;;;4189245;28;20559;-59
2020/12/25 01:52:19;;;;;;;5.47;2.43;;;3.00;99.90;;;;;;4189278;28;20479;-59
2020/12/25 01:54:21;;;;;;;4.77;2.47;;;3.00;99.90;;;;;;4188809;28;20470;-59
2020/12/25 01:56:23;;;;;;;2.87;2.03;;;3.10;99.90;;;;;;4192105;28;20811;-59
2020/12/25 01:58:25;;;;;;;5.17;2.33;;;3.10;99.90;;;;;;4193459;28;20467;-59
2020/12/25 02:00:29;;;;;;;4.03;2.30;;;3.10;99.90;;;;;;4192517;28;20466;-59
2020/12/25 02:02:30;;;;;;;6.97;2.30;;;3.10;99.90;;;;;;4191213;28;20479;-59
2020/12/25 02:04:32;;;;;;;4.30;2.27;;;3.10;99.90;;;;;;4194896;28;20475;-59
2020/12/25 02:06:38;;;;;;;4.93;2.37;;;3.10;99.90;;;;;;4193625;28;20467;-59
2020/12/25 02:08:39;;;;;;;4.80;2.20;;;3.10;99.90;;;;;;4193786;28;20490;-59
2020/12/25 02:10:42;;;;;;;3.57;2.03;;;3.20;99.90;;;;;;4193210;28;20468;-60
2020/12/25 02:12:44;;;;;;;4.13;2.20;;;3.20;99.90;;;;;;4191519;28;21082;-59
2020/12/25 02:14:46;;;;;;;4.73;2.27;;;3.20;99.90;;;;;;4192812;28;20513;-59
2020/12/25 02:16:47;;;;;;;4.10;2.20;;;3.20;99.90;;;;;;4191196;28;20474;-59
2020/12/25 02:18:49;;;;;;;3.73;2.10;;;3.20;99.90;;;;;;4193066;28;20478;-59
2020/12/25 02:20:50;;;;;;;3.63;2.20;;;3.20;99.90;;;;;;4193110;28;20481;-59
2020/12/25 02:22:52;;;;;;;3.40;2.00;;;3.20;99.90;;;;;;4190741;28;20532;-59
2020/12/25 02:24:54;;;;;;;3.47;2.10;;;3.20;99.90;;;;;;4192894;28;20467;-60
2020/12/25 02:26:55;;;;;;;3.63;2.00;;;3.20;99.90;;;;;;4191194;28;20945;-60
2020/12/25 02:28:57;;;;;;;3.40;2.00;;;3.20;99.90;;;;;;4192533;28;20510;-62
2020/12/25 02:30:58;;;;;;;3.33;1.90;;;3.20;99.90;;;;;;4191733;28;20487;-59
2020/12/25 02:33:00;;;;;;;3.57;2.20;;;3.30;99.90;;;;;;4192273;28;20517;-64
2020/12/25 02:35:01;;;;;;;5.03;2.57;;;3.30;99.90;;;;;;4191733;28;20475;-59
2020/12/25 02:37:03;;;;;;;3.50;2.13;;;3.30;99.90;;;;;;4191871;28;20508;-60
2020/12/25 02:39:05;;;;;;;3.90;2.33;;;3.30;99.90;;;;;;4191999;28;20498;-59
2020/12/25 02:41:07;;;;;;;4.57;2.30;;;3.30;99.90;;;;;;4192797;28;20459;-58
2020/12/25 02:43:08;;;;;;;4.33;2.10;;;3.30;99.90;;;;;;4191725;28;20501;-59
2020/12/25 02:45:09;;;;;;;4.03;2.30;;;3.30;99.90;;;;;;4191555;28;20594;-58
2020/12/25 02:47:11;;;;;;;3.67;2.20;;;3.30;99.90;;;;;;4192098;28;20494;-59
2020/12/25 02:49:12;;;;;;;4.73;2.23;;;3.30;99.90;;;;;;4190459;28;20646;-59
2020/12/25 02:51:17;;;;;;;4.50;2.10;;;3.30;99.90;;;;;;4192721;28;21094;-59
2020/12/25 02:53:19;;;;;;;3.47;2.10;;;3.30;99.90;;;;;;4191706;28;20479;-58
2020/12/25 02:55:21;;;;;;;5.33;2.17;;;3.30;99.90;;;;;;4190774;28;20483;-58
2020/12/25 02:57:22;;;;;;;5.10;2.17;;;3.30;99.90;;;;;;4193636;28;20475;-58
2020/12/25 02:59:24;;;;;;;4.23;2.10;;;3.30;99.90;;;;;;4191687;28;20539;-59
2020/12/25 03:01:25;;;;;;;3.57;2.13;;;3.30;99.90;;;;;;4191813;28;22490;-59
2020/12/25 03:03:26;;;;;;;2.87;1.80;;;3.30;99.90;;;;;;4191485;28;20467;-59
2020/12/25 03:05:28;;;;;;;5.87;2.40;;;3.30;99.90;;;;;;4194205;28;20479;-59
2020/12/25 03:07:29;;;;;;;4.97;2.30;;;3.30;99.90;;;;;;4191994;28;20491;-59
2020/12/25 03:09:30;;;;;;;4.03;2.23;;;3.30;99.90;;;;;;4192493;28;20472;-59
2020/12/25 03:11:32;;;;;;;4.77;2.53;;;3.30;99.90;;;;;;4191813;28;20495;-59
2020/12/25 03:13:36;;;;;;;5.77;2.00;;;3.30;99.90;;;;;;4192119;28;20483;-59
2020/12/25 03:15:37;;;;;;;6.43;2.40;;;3.20;99.90;;;;;;4191831;28;20568;-59
2020/12/25 03:17:39;;;;;;;3.77;2.33;;;3.10;99.90;;;;;;4191140;28;20462;-58
2020/12/25 03:19:40;;;;;;;4.17;2.33;;;3.10;99.90;;;;;;4192754;28;20475;-57
2020/12/25 03:21:41;;;;;;;5.50;1.93;;;3.10;99.90;;;;;;4192021;28;20525;-58
2020/12/25 03:23:42;;;;;;;4.97;2.43;;;3.10;99.90;;;;;;4190187;28;20985;-57
2020/12/25 03:25:44;;;;;;;4.77;2.50;;;3.00;99.90;;;;;;4191744;28;20476;-59
2020/12/25 03:27:46;;;;;;;4.17;2.50;;;3.00;99.90;;;;;;4191127;28;20490;-59
2020/12/25 03:29:47;;;;;;;5.57;2.40;;;3.00;99.90;;;;;;4191285;28;20483;-59
2020/12/25 03:31:48;;;;;;;5.93;2.67;;;3.00;99.90;;;;;;4190255;28;20467;-60
2020/12/25 03:33:50;;;;;;;5.13;2.90;;;2.90;99.90;;;;;;4192470;28;20471;-58
2020/12/25 03:35:51;;;;;;;5.07;2.37;;;2.80;99.90;;;;;;4190241;28;20482;-58
2020/12/25 03:37:53;;;;;;;5.23;2.53;;;2.70;99.90;;;;;;4190140;28;20575;-59
2020/12/25 03:39:54;;;;;;;6.67;2.80;;;2.70;99.90;;;;;;4190794;28;20478;-58
2020/12/25 03:41:55;;;;;;;4.83;2.40;;;2.60;99.90;;;;;;4191395;28;20551;-59
2020/12/25 03:43:58;;;;;;;5.73;2.80;;;2.50;99.90;;;;;;4192090;28;20472;-58
2020/12/25 03:46:00;;;;;;;4.80;3.03;;;2.50;99.90;;;;;;4190660;28;20548;-59
2020/12/25 03:48:01;;;;;;;7.10;2.87;;;2.40;99.90;;;;;;4191049;28;20489;-59
2020/12/25 03:50:03;;;;;;;5.90;3.27;;;2.40;99.90;;;;;;4191968;28;20471;-59
2020/12/25 03:52:04;;;;;;;6.03;2.83;;;2.30;99.90;;;;;;4191754;28;20502;-60
2020/12/25 03:54:06;;;;;;;5.20;2.93;;;2.30;99.90;;;;;;4190115;28;20826;-59
2020/12/25 03:56:07;;;;;;;6.90;3.30;;;2.20;99.90;;;;;;4190234;28;20469;-59
2020/12/25 03:58:08;;;;;;;10.93;3.67;;;2.20;99.90;;;;;;4190845;28;20464;-59
2020/12/25 04:00:10;;;;;;;6.40;3.60;;;2.20;99.90;;;;;;4191478;28;20476;-58
2020/12/25 04:02:12;;;;;;;7.03;3.20;;;2.10;99.90;;;;;;4190085;28;20484;-59
2020/12/25 04:04:13;;;;;;;7.27;3.70;;;2.10;99.90;;;;;;4193005;28;21365;-58
2020/12/25 04:06:15;;;;;;;6.37;3.60;;;2.10;99.90;;;;;;4191815;28;20535;-59
2020/12/25 04:08:16;;;;;;;8.77;3.83;;;2.10;99.90;;;;;;4190240;28;20482;-59
2020/12/25 04:10:17;;;;;;;7.37;3.90;;;2.10;99.90;;;;;;4190382;28;21071;-59
2020/12/25 04:12:19;;;;;;;8.97;3.83;;;2.10;99.90;;;;;;4188890;28;20551;-59
2020/12/25 04:14:20;;;;;;;8.37;3.50;;;2.00;99.90;;;;;;4189802;28;20485;-59
2020/12/25 04:16:22;;;;;;;12.03;4.27;;;2.00;99.90;;;;;;4190198;28;20467;-58
2020/12/25 04:18:24;;;;;;;9.33;3.50;;;2.00;99.90;;;;;;4190578;28;20476;-59
2020/12/25 04:20:25;;;;;;;6.67;3.57;;;2.00;99.90;;;;;;4188688;28;20492;-59
2020/12/25 04:22:26;;;;;;;8.03;4.00;;;2.00;99.90;;;;;;4190772;28;20470;-58
2020/12/25 04:24:28;;;;;;;9.27;4.03;;;2.00;99.90;;;;;;4189195;28;20595;-59
2020/12/25 04:26:29;;;;;;;7.77;3.70;;;2.00;99.90;;;;;;4190960;28;20469;-59
2020/12/25 04:28:30;;;;;;;7.83;4.13;;;2.00;99.90;;;;;;4190968;28;20576;-59
2020/12/25 04:30:32;;;;;;;11.13;4.00;;;2.00;99.90;;;;;;4189340;28;20467;-59
2020/12/25 04:32:34;;;;;;;7.70;3.87;;;2.10;99.90;;;;;;4189925;28;20470;-59
2020/12/25 04:34:35;;;;;;;6.83;3.33;;;2.10;99.90;;;;;;4189863;28;20471;-58
2020/12/25 04:36:36;;;;;;;7.63;3.80;;;2.10;99.90;;;;;;4190612;28;20508;-59
2020/12/25 04:38:38;;;;;;;5.50;3.17;;;2.20;99.90;;;;;;4189225;28;20461;-59
2020/12/25 04:40:41;;;;;;;8.57;3.87;;;2.20;99.90;;;;;;4190984;28;21011;-59
2020/12/25 04:42:49;;;;;;;9.07;3.90;;;2.20;99.90;;;;;;4192028;28;20501;-59
2020/12/25 04:44:51;;;;;;;6.33;3.47;;;2.20;99.90;;;;;;4190889;28;20470;-59
2020/12/25 04:46:52;;;;;;;6.27;3.30;;;2.30;99.90;;;;;;4190976;28;20471;-59
2020/12/25 04:48:55;;;;;;;6.67;3.70;;;2.20;99.90;;;;;;4189647;28;20501;-59
2020/12/25 04:50:57;;;;;;;6.17;3.40;;;2.20;99.90;;;;;;4190259;28;20470;-59
2020/12/25 04:52:59;;;;;;;6.03;3.33;;;2.20;99.90;;;;;;4191175;28;20507;-59
2020/12/25 04:55:01;;;;;;;6.80;3.50;;;2.20;99.90;;;;;;4190857;28;20786;-59
2020/12/25 04:57:03;;;;;;;6.53;3.47;;;2.20;99.90;;;;;;4191081;28;20477;-59
2020/12/25 04:59:04;;;;;;;6.80;3.80;;;2.20;99.90;;;;;;4190517;28;20490;-59
2020/12/25 05:01:07;;;;;;;5.40;2.90;;;2.30;99.90;;;;;;4188790;28;20479;-59
2020/12/25 05:03:08;;;;;;;8.87;3.03;;;2.20;99.90;;;;;;4189617;28;20499;-59
2020/12/25 05:05:11;;;;;;;5.83;3.03;;;2.30;99.90;;;;;;4188654;28;20518;-59
2020/12/25 05:07:14;;;;;;;7.03;3.47;;;2.20;99.90;;;;;;4189982;28;20459;-59
2020/12/25 05:09:16;;;;;;;5.87;3.07;;;2.30;99.90;;;;;;4190506;28;20979;-59
2020/12/25 05:11:20;;;;;;;6.17;3.33;;;2.20;99.90;;;;;;4190105;28;20462;-58
2020/12/25 05:13:21;;;;;;;6.63;2.90;;;2.20;99.90;;;;;;4190036;28;21157;-59
2020/12/25 05:15:23;;;;;;;4.60;3.07;;;2.20;99.90;;;;;;4189621;28;20467;-58
2020/12/25 05:17:24;;;;;;;6.23;3.20;;;2.20;99.90;;;;;;4189102;28;20475;-58
2020/12/25 05:19:27;;;;;;;6.03;3.20;;;2.20;99.90;;;;;;4189962;28;20477;-59
2020/12/25 05:21:29;;;;;;;8.20;3.40;;;2.20;99.90;;;;;;4191009;28;20477;-59
2020/12/25 05:23:31;;;;;;;10.53;3.13;;;2.20;99.90;;;;;;4191396;28;21050;-59
2020/12/25 05:25:33;;;;;;;9.43;3.43;;;2.20;99.90;;;;;;4190720;28;20479;-59
2020/12/25 05:27:35;;;;;;;6.03;3.17;;;2.20;99.90;;;;;;4189660;28;20574;-59
2020/12/25 05:29:39;;;;;;;5.03;2.90;;;2.20;99.90;;;;;;4191280;28;20466;-59
2020/12/25 05:31:47;;;;;;;8.53;3.50;;;2.10;99.90;;;;;;4192560;28;20474;-61
2020/12/25 05:33:49;;;;;;;7.37;3.20;;;2.10;99.90;;;;;;4194744;28;20478;-59
2020/12/25 05:35:54;;;;;;;7.80;3.10;;;2.10;99.90;;;;;;4194371;28;21034;-59
2020/12/25 05:37:57;;;;;;;6.10;2.73;;;2.10;99.90;;;;;;4192028;28;20472;-59
2020/12/25 05:40:00;;;;;;;4.83;3.00;;;2.10;99.90;;;;;;4193947;28;20469;-59
2020/12/25 05:42:04;;;;;;;5.50;3.00;;;2.10;99.90;;;;;;4192228;28;20462;-63
2020/12/25 05:44:06;;;;;;;6.87;3.30;;;2.10;99.90;;;;;;4193140;28;20493;-59
2020/12/25 05:46:13;;;;;;;6.47;3.00;;;2.00;99.90;;;;;;4193471;28;20471;-59
2020/12/25 05:48:15;;;;;;;6.17;3.20;;;2.00;99.90;;;;;;4192045;28;20578;-59
2020/12/25 05:50:18;;;;;;;4.57;2.87;;;1.90;99.90;;;;;;4193146;28;20475;-58
2020/12/25 05:52:20;;;;;;;6.90;3.30;;;1.90;99.90;;;;;;4193675;28;20469;-59
2020/12/25 05:54:25;;;;;;;8.43;3.20;;;1.80;99.90;;;;;;4193478;28;21010;-59
2020/12/25 05:56:27;;;;;;;4.93;3.30;;;1.80;99.90;;;;;;4192483;28;20468;-58
2020/12/25 05:58:31;;;;;;;5.60;2.97;;;1.70;99.90;;;;;;4192127;28;20774;-59
2020/12/25 06:00:33;;;;;;;4.37;2.80;;;1.60;99.90;;;;;;4192635;28;20469;-58
2020/12/25 06:02:35;;;;;;;8.00;2.70;;;1.60;99.90;;;;;;4191467;28;20480;-59
2020/12/25 06:04:36;;;;;;;4.37;2.73;;;1.50;99.90;;;;;;4193168;28;20471;-59
2020/12/25 06:06:40;;;;;;;8.57;3.20;;;1.50;99.90;;;;;;4193588;28;20527;-58
2020/12/25 06:08:58;;;;;;;5.33;3.03;;;1.40;99.90;;;;;;4192147;28;22460;-58
2020/12/25 06:11:03;;;;;;;6.77;2.93;;;1.40;99.90;;;;;;4193396;28;20468;-58
2020/12/25 06:13:07;;;;;;;10.67;3.63;;;1.30;99.90;;;;;;4192062;28;20491;-58
2020/12/25 06:15:11;;;;;;;6.00;2.80;;;1.30;99.90;;;;;;4192099;28;20540;-58
2020/12/25 06:17:18;;;;;;;4.97;2.73;;;1.20;99.90;;;;;;4192386;28;20782;-58
2020/12/25 06:19:32;;;;;;;5.50;2.63;;;1.20;99.90;;;;;;4190856;28;20469;-58
2020/12/25 06:21:45;;;;;;;4.83;2.53;;;1.20;99.90;;;;;;4195058;28;20482;-58
2020/12/25 06:23:47;;;;;;;6.73;2.60;;;1.20;99.90;;;;;;4192782;28;20769;-59
2020/12/25 06:25:51;;;;;;;8.90;2.80;;;1.10;99.90;;;;;;4192981;28;20463;-58
2020/12/25 06:27:59;;;;;;;7.07;2.87;;;1.10;99.90;;;;;;4192581;28;20488;-58
2020/12/25 06:30:02;;;;;;;5.80;2.80;;;1.10;99.90;;;;;;4192522;28;20474;-58
2020/12/25 06:32:05;;;;;;;6.87;3.27;;;1.00;99.90;;;;;;4192605;28;20468;-58
2020/12/25 06:34:06;;;;;;;6.67;2.90;;;1.00;99.90;;;;;;4191423;28;21127;-58
2020/12/25 06:36:08;;;;;;;6.83;3.03;;;1.00;99.90;;;;;;4192082;28;20967;-58
2020/12/25 06:38:10;;;;;;;5.30;3.00;;;0.90;99.90;;;;;;4192279;28;20464;-58
2020/12/25 06:40:11;;;;;;;6.20;2.70;;;0.90;99.90;;;;;;4192071;28;20935;-58
2020/12/25 06:42:13;;;;;;;6.63;2.63;;;0.90;99.90;;;;;;4190486;28;20483;-58
2020/12/25 06:44:16;;;;;;;6.77;2.67;;;0.80;99.90;;;;;;4191895;28;20490;-58
2020/12/25 06:46:29;;;;;;;7.80;3.30;;;0.80;99.90;;;;;;4191328;28;20469;-58
2020/12/25 06:48:31;;;;;;;6.43;2.70;;;0.80;99.90;;;;;;4192197;28;20476;-58
2020/12/25 06:50:40;;;;;;;6.10;2.63;;;0.80;99.90;;;;;;4191815;28;20472;-58
2020/12/25 06:52:52;;;;;;;4.97;2.70;;;0.70;99.90;;;;;;4193102;28;20482;-58
2020/12/25 06:54:54;;;;;;;5.40;2.70;;;0.70;99.90;;;;;;4192247;28;20942;-58
2020/12/25 06:56:55;;;;;;;6.73;2.50;;;0.70;99.90;;;;;;4190927;28;20806;-57
2020/12/25 06:58:56;;;;;;;7.27;2.97;;;0.70;99.90;;;;;;4192614;28;20459;-58
2020/12/25 07:00:59;;;;;;;6.13;2.93;;;0.60;99.90;;;;;;4191191;28;20483;-58
2020/12/25 07:03:10;;;;;;;5.60;2.57;;;0.60;99.90;;;;;;4192240;28;20973;-58
2020/12/25 07:05:12;;;;;;;4.57;2.50;;;0.60;99.90;;;;;;4191966;28;20474;-58
2020/12/25 07:07:14;;;;;;;5.07;2.80;;;0.60;99.90;;;;;;4190803;28;21049;-59
2020/12/25 07:09:16;;;;;;;4.87;2.50;;;0.50;99.90;;;;;;4191785;28;20817;-58
2020/12/25 07:11:18;;;;;;;5.53;2.50;;;0.50;99.90;;;;;;4192677;28;20505;-55
2020/12/25 07:13:21;;;;;;;5.53;2.80;;;0.50;99.90;;;;;;4191781;28;21167;-55
2020/12/25 07:15:22;;;;;;;6.07;3.30;;;0.50;99.90;;;;;;4191454;28;20554;-55
2020/12/25 07:17:25;;;;;;;6.27;2.73;;;0.50;99.90;;;;;;4192084;28;20927;-54
2020/12/25 07:19:27;;;;;;;6.28;2.92;;;0.50;99.90;;;;;;4194244;28;20518;-55
2020/12/25 07:21:29;;;;;;;9.47;2.83;;;0.50;99.90;;;;;;4191369;28;20210;-55
2020/12/25 07:23:30;;;;;;;6.73;2.87;;;0.50;99.90;;;;;;4191623;28;20507;-55
2020/12/25 07:25:39;;;;;;;6.73;3.20;;;0.50;99.90;;;;;;4192877;28;22242;-55
2020/12/25 07:27:41;;;;;;;7.27;2.97;;;0.50;99.90;;;;;;4190948;28;20941;-55
2020/12/25 07:29:43;;;;;;;7.27;2.73;;;0.50;99.90;;;;;;4191607;28;20486;-55
2020/12/25 07:31:49;;;;;;;6.60;2.90;;;0.50;99.90;;;;;;4192938;28;20479;-55
2020/12/25 07:33:55;;;;;;;8.60;2.33;;;0.50;99.90;;;;;;4189199;28;20559;-55
2020/12/25 07:35:58;;;;;;;4.27;2.40;;;0.50;99.90;;;;;;4191336;28;20470;-55
2020/12/25 07:37:59;;;;;;;5.47;2.10;;;0.50;99.90;;;;;;4189909;28;20472;-55
2020/12/25 07:40:05;;;;;;;4.27;1.80;;;0.50;99.90;;;;;;4192015;28;20493;-55
2020/12/25 07:42:07;;;;;;;5.03;2.37;;;0.50;99.90;;;;;;4193731;28;20468;-55
2020/12/25 07:44:09;;;;;;;3.63;2.10;;;0.50;99.90;;;;;;4190049;28;20471;-55
2020/12/25 07:46:13;;;;;;;5.63;2.20;;;0.50;99.90;;;;;;4192404;28;20484;-53
2020/12/25 07:48:15;;;;;;;8.37;2.17;;;0.50;99.90;;;;;;4190290;28;20495;-53
2020/12/25 07:50:17;;;;;;;4.10;2.27;;;0.50;99.90;;;;;;4190471;28;20467;-53
2020/12/25 07:52:19;;;;;;;7.90;2.53;;;0.50;99.90;;;;;;4190406;28;20487;-53
2020/12/25 07:54:22;;;;;;;3.47;2.07;;;0.60;99.90;;;;;;4189707;28;20471;-54
2020/12/25 07:56:26;;;;;;;2.93;1.83;;;0.60;99.90;;;;;;4191162;28;20962;-53
2020/12/25 07:58:28;;;;;;;4.50;2.20;;;0.60;99.90;;;;;;4190949;28;20472;-54
2020/12/25 08:00:29;;;;;;;5.67;2.40;;;0.50;99.90;;;;;;4191037;28;20468;-53
2020/12/25 08:02:31;;;;;;;4.77;2.30;;;0.50;99.90;;;;;;4193010;28;20479;-53
2020/12/25 08:04:34;;;;;;;5.53;2.30;;;0.50;99.90;;;;;;4191335;28;20775;-53
2020/12/25 08:06:37;;;;;;;6.40;2.50;;;0.50;99.90;;;;;;4191181;28;20797;-54
2020/12/25 08:08:40;;;;;;;4.37;2.40;;;0.50;99.90;;;;;;4188897;28;20496;-54
2020/12/25 08:10:42;;;;;;;5.20;2.37;;;0.50;99.90;;;;;;4190784;28;20523;-54
2020/12/25 08:12:44;;;;;;;5.30;2.53;;;0.50;99.90;;;;;;4190437;28;21039;-54
2020/12/25 08:14:46;;;;;;;12.13;2.90;;;0.50;99.90;;;;;;4190673;28;20459;-54
2020/12/25 08:16:49;;;;;;;5.23;2.80;;;0.60;99.90;;;;;;4190754;28;20460;-54
2020/12/25 08:18:51;;;;;;;6.43;2.70;;;0.60;99.90;;;;;;4188871;28;20464;-55
2020/12/25 08:20:53;;;;;;;5.30;2.33;;;0.70;99.90;;;;;;4190446;28;20475;-54
2020/12/25 08:22:59;;;;;;;4.80;2.23;;;0.70;99.90;;;;;;4192363;28;20478;-54
2020/12/25 08:25:00;;;;;;;7.70;2.67;;;0.70;99.90;;;;;;4189786;28;20483;-54
2020/12/25 08:27:03;;;;;;;5.67;2.10;;;0.70;99.90;;;;;;4189494;28;20481;-54
2020/12/25 08:29:05;;;;;;;4.33;2.40;;;0.70;99.90;;;;;;4189339;28;21364;-54
2020/12/25 08:31:16;;;;;;;5.30;2.50;;;0.80;99.90;;;;;;4189923;28;20998;-54
2020/12/25 08:33:23;;;;;;;5.33;2.30;;;0.80;99.90;;;;;;4190337;28;20536;-54
2020/12/25 08:35:27;;;;;;;5.97;2.43;;;0.80;99.90;;;;;;4190513;28;20468;-54
2020/12/25 08:37:28;;;;;;;3.87;2.37;;;0.80;99.90;;;;;;4190541;28;22258;-54
2020/12/25 08:39:31;;;;;;;4.93;2.50;;;0.80;99.90;;;;;;4191586;28;20459;-54
2020/12/25 08:41:33;;;;;;;3.67;2.20;;;0.80;99.90;;;;;;4190315;28;20471;-54
2020/12/25 08:43:34;;;;;;;6.00;2.27;;;0.80;99.90;;;;;;4189987;28;20560;-54
2020/12/25 08:45:36;;;;;;;4.43;2.17;;;0.90;99.90;;;;;;4189723;28;20467;-54
2020/12/25 08:47:37;;;;;;;4.63;2.07;;;0.90;99.90;;;;;;4190258;28;20482;-54
2020/12/25 08:49:39;;;;;;;7.80;2.47;;;0.90;99.90;;;;;;4188061;28;20502;-54
2020/12/25 08:51:40;;;;;;;3.50;2.10;;;1.00;99.90;;;;;;4190834;28;20476;-54
2020/12/25 08:53:50;;;;;;;4.03;1.93;;;1.00;99.90;;;;;;4190242;28;20470;-54
2020/12/25 08:55:54;;;;;;;3.40;1.90;;;1.00;99.90;;;;;;4189929;28;20494;-54
2020/12/25 08:57:56;;;;;;;5.97;2.17;;;1.00;99.90;;;;;;4190474;28;20476;-54
2020/12/25 09:00:03;;;;;;;4.67;2.00;;;1.00;99.90;;;;;;4191293;28;20475;-54
2020/12/25 09:02:05;;;;;;;3.93;2.03;;;1.00;99.90;;;;;;4189571;28;20472;-54
2020/12/25 09:04:12;;;;;;;6.60;2.00;;;1.10;99.90;;;;;;4189818;28;20491;-55
2020/12/25 09:06:13;;;;;;;5.53;1.90;;;1.10;99.90;;;;;;4186794;28;21019;-55
2020/12/25 09:08:15;;;;;;;3.77;1.80;;;1.10;99.90;;;;;;4190874;28;20959;-54
2020/12/25 09:10:16;;;;;;;6.33;2.10;;;1.10;99.90;;;;;;4188504;28;20477;-54
2020/12/25 09:12:18;;;;;;;3.73;1.83;;;1.20;99.90;;;;;;4189165;28;20494;-56
2020/12/25 09:14:19;;;;;;;6.87;2.30;;;1.20;99.90;;;;;;4190316;28;20473;-60
2020/12/25 09:16:21;;;;;;;8.77;2.17;;;1.20;99.90;;;;;;4189915;28;20533;-55
2020/12/25 09:18:22;;;;;;;9.93;2.20;;;1.30;99.90;;;;;;4190229;28;20551;-54
2020/12/25 09:20:23;;;;;;;3.80;1.80;;;1.30;99.90;;;;;;4190618;28;20474;-54
2020/12/25 09:22:25;;;;;;;6.13;2.17;;;1.30;99.90;;;;;;4188893;28;20537;-55
2020/12/25 09:24:26;;;;;;;5.77;2.23;;;1.30;99.90;;;;;;4188705;28;20466;-55
2020/12/25 09:26:27;;;;;;;5.13;2.10;;;1.30;99.90;;;;;;4190183;28;20509;-54
2020/12/25 09:28:30;;;;;;;4.63;1.77;;;1.30;99.90;;;;;;4187758;28;20499;-54
2020/12/25 09:30:31;;;;;;;5.17;2.33;;;1.30;99.90;;;;;;4190463;28;21064;-54
2020/12/25 09:32:32;;;;;;;4.93;2.00;;;1.30;99.90;;;;;;4187519;28;20473;-54
2020/12/25 09:34:33;;;;;;;4.27;1.80;;;1.30;99.90;;;;;;4188818;28;20465;-54
2020/12/25 09:36:35;;;;;;;6.57;1.90;;;1.30;99.90;;;;;;4186937;28;20771;-54
2020/12/25 09:38:37;;;;;;;3.37;2.10;;;1.40;99.90;;;;;;4189170;28;20509;-54
2020/12/25 09:40:39;;;;;;;3.93;2.07;;;1.40;99.90;;;;;;4190124;28;20465;-54
2020/12/25 09:42:40;;;;;;;4.47;2.10;;;1.30;99.90;;;;;;4189618;28;20464;-54
2020/12/25 09:44:42;;;;;;;3.20;1.80;;;1.40;99.90;;;;;;4189206;28;20479;-55
2020/12/25 09:46:44;;;;;;;3.67;1.70;;;1.40;99.90;;;;;;4189656;28;20486;-54
2020/12/25 09:48:45;;;;;;;5.33;1.80;;;1.40;99.90;;;;;;4190038;28;20569;-53
2020/12/25 09:50:46;;;;;;;5.40;1.90;;;1.50;99.90;;;;;;4189380;28;20479;-53
2020/12/25 09:52:48;;;;;;;3.93;1.87;;;1.50;99.90;;;;;;4189333;28;20463;-55
2020/12/25 09:54:49;;;;;;;4.27;1.87;;;1.50;99.90;;;;;;4190392;28;20479;-54
2020/12/25 09:56:50;;;;;;;5.03;2.20;;;1.50;99.90;;;;;;4190698;28;20480;-55
2020/12/25 09:58:52;;;;;;;5.17;1.50;;;1.60;99.90;;;;;;4188673;28;20524;-54
2020/12/25 10:00:54;;;;;;;3.87;1.63;;;1.60;99.90;;;;;;4188510;28;20463;-54
2020/12/25 10:02:55;;;;;;;7.43;1.80;;;1.60;99.90;;;;;;4189200;28;20489;-54
2020/12/25 10:04:56;;;;;;;5.37;1.47;;;1.60;99.90;;;;;;4190230;28;20463;-54
2020/12/25 10:06:58;;;;;;;4.93;1.60;;;1.60;99.90;;;;;;4188874;28;20469;-54
2020/12/25 10:08:59;;;;;;;5.77;2.10;;;1.60;99.90;;;;;;4189449;28;21219;-54
2020/12/25 10:11:00;;;;;;;3.23;1.60;;;1.60;99.90;;;;;;4188471;28;20472;-53
2020/12/25 10:13:02;;;;;;;2.20;1.20;;;1.70;99.90;;;;;;4187438;28;20486;-53
2020/12/25 10:15:04;;;;;;;4.10;1.37;;;1.70;99.90;;;;;;4188591;28;20501;-53
2020/12/25 10:17:06;;;;;;;6.53;1.60;;;1.70;99.90;;;;;;4189025;28;20719;-53
2020/12/25 10:19:08;;;;;;;6.60;1.60;;;1.80;99.90;;;;;;4193371;28;20800;-53
2020/12/25 10:21:09;;;;;;;4.47;1.70;;;1.80;99.90;;;;;;4191477;28;20480;-53
2020/12/25 10:23:11;;;;;;;4.70;1.33;;;1.80;99.90;;;;;;4191468;28;21211;-53
2020/12/25 10:25:12;;;;;;;6.57;1.33;;;1.80;99.90;;;;;;4192020;28;20467;-55
2020/12/25 10:27:14;;;;;;;3.97;1.60;;;1.80;99.90;;;;;;4189019;28;20563;-55
2020/12/25 10:29:15;;;;;;;4.23;1.50;;;1.80;99.90;;;;;;4192110;28;20483;-55
2020/12/25 10:31:16;;;;;;;5.03;1.37;;;1.80;99.90;;;;;;4191079;28;20547;-54
2020/12/25 10:33:18;;;;;;;4.83;1.10;;;1.90;99.90;;;;;;4190588;28;20467;-55
2020/12/25 10:35:20;;;;;;;5.33;1.27;;;1.90;99.90;;;;;;4192753;28;20477;-52
2020/12/25 10:37:21;;;;;;;4.63;1.43;;;2.00;99.90;;;;;;4192279;28;20468;-55
2020/12/25 10:39:22;;;;;;;4.20;1.20;;;2.00;99.90;;;;;;4192941;28;20499;-54
2020/12/25 10:41:30;;;;;;;4.30;1.40;;;2.10;99.90;;;;;;4192052;28;20467;-54
2020/12/25 10:43:31;;;;;;;2.53;1.20;;;2.10;99.90;;;;;;4189708;28;20854;-55
2020/12/25 10:45:32;;;;;;;5.40;1.33;;;2.10;99.90;;;;;;4192587;28;20474;-54